Time;durP1;ratioP1;P1;durP2;ratioP2;P2;SDS_P1;SDS_P2;PMS_P1;PMS_P2;Temp;Humidity;BMP_temperature;BMP_pressure;BME280_temperature;BME280_humidity;BME280_pressure;Samples;Min_cycle;Max_cycle;Signal;HPM_P1;HPM_P2
2024/02/20 00:01:36;;;;;;;0.20;0.20;;;;;;;5.06;70.97;102141.34;4974461;28;20118;-89
2024/02/20 00:04:02;;;;;;;0.20;0.20;;;;;;;4.83;70.94;102113.16;4989963;28;20023;-89
2024/02/20 00:06:29;;;;;;;0.20;0.20;;;;;;;5.03;71.01;102150.75;4989890;28;20027;-90
2024/02/20 00:08:55;;;;;;;0.20;0.20;;;;;;;5.03;70.94;102150.75;4973371;28;20062;-89
2024/02/20 00:11:22;;;;;;;0.20;0.20;;;;;;;5.02;71.03;102146.50;4973273;28;20519;-90
2024/02/20 00:13:48;;;;;;;0.20;0.20;;;;;;;5.05;70.51;102149.03;4973137;28;20054;-90
2024/02/20 00:16:14;;;;;;;0.20;0.20;;;;;;;4.97;70.80;102135.38;4973147;28;20062;-91
2024/02/20 00:18:39;;;;;;;0.20;0.20;;;;;;;4.99;71.05;102138.78;4973343;28;20170;-90
2024/02/20 00:21:05;;;;;;;0.20;0.20;;;;;;;4.89;70.95;102122.56;4973707;28;20436;-90
2024/02/20 00:23:30;;;;;;;0.20;0.20;;;;;;;4.78;71.09;102130.25;4973642;28;20038;-90
2024/02/20 00:25:56;;;;;;;0.20;0.20;;;;;;;4.94;70.80;102145.63;4989313;28;20031;-90
2024/02/20 00:28:21;;;;;;;0.20;0.20;;;;;;;4.79;71.20;102144.78;4973037;28;20043;-90
2024/02/20 00:30:47;;;;;;;0.20;0.20;;;;;;;4.76;71.64;102147.34;4973224;28;20034;-89
2024/02/20 00:33:13;;;;;;;0.20;0.20;;;;;;;4.79;71.55;102146.50;4973180;28;20036;-89
2024/02/20 00:35:39;;;;;;;0.20;0.20;;;;;;;4.75;71.86;102145.66;4957299;28;20530;-90
2024/02/20 00:38:04;;;;;;;0.20;0.20;;;;;;;4.70;71.96;102129.41;4972863;28;20551;-90
2024/02/20 00:40:30;;;;;;;0.20;0.20;;;;;;;4.78;71.98;102132.81;4989299;28;20039;-90
2024/02/20 00:42:57;;;;;;;0.20;0.20;;;;;;;4.80;71.65;102131.09;4972493;28;20061;-89
2024/02/20 00:45:22;;;;;;;0.20;0.20;;;;;;;4.80;71.99;102138.78;4972987;28;20129;-89
2024/02/20 00:47:48;;;;;;;0.20;0.20;;;;;;;4.86;71.62;102143.06;4972942;28;20059;-89
2024/02/20 00:50:16;;;;;;;0.20;0.20;;;;;;;4.86;71.66;102137.94;4957054;28;20033;-90
2024/02/20 00:52:41;;;;;;;0.20;0.20;;;;;;;4.87;71.56;102140.50;4972911;28;20058;-89
2024/02/20 00:55:07;;;;;;;0.20;0.20;;;;;;;4.83;71.90;102143.09;4972472;28;20039;-91
2024/02/20 00:57:33;;;;;;;0.20;0.20;;;;;;;4.73;71.73;102115.75;4972862;28;20027;-89
2024/02/20 00:59:59;;;;;;;0.20;0.20;;;;;;;4.78;72.60;102137.94;4956240;28;20489;-89
2024/02/20 01:02:24;;;;;;;0.20;0.20;;;;;;;4.83;71.84;102137.97;4956531;28;20169;-89
2024/02/20 01:04:50;;;;;;;0.20;0.20;;;;;;;4.84;72.26;102135.38;4972304;28;20036;-88
2024/02/20 01:07:15;;;;;;;0.20;0.20;;;;;;;4.96;72.33;102138.78;4972539;28;20552;-89
2024/02/20 01:09:41;;;;;;;0.20;0.20;;;;;;;4.86;72.56;102123.41;4973211;28;20497;-90
2024/02/20 01:12:06;;;;;;;0.20;0.20;;;;;;;5.01;71.53;102139.63;4988500;28;20019;-91
2024/02/20 01:14:32;;;;;;;0.20;0.20;;;;;;;5.08;71.38;102144.75;4988745;28;20045;-89
2024/02/20 01:16:57;;;;;;;0.20;0.20;;;;;;;5.12;70.98;102135.34;4972336;28;20470;-89
2024/02/20 01:19:23;;;;;;;0.20;0.20;;;;;;;5.12;70.71;102135.34;4972341;28;20113;-89
2024/02/20 01:21:48;;;;;;;0.20;0.20;;;;;;;5.16;70.79;102134.47;4955912;28;20034;-89
2024/02/20 01:24:14;;;;;;;0.20;0.20;;;;;;;5.07;70.81;102119.09;4971945;28;20035;-90
2024/02/20 01:26:43;;;;;;;0.20;0.20;;;;;;;5.11;70.90;102118.22;4972424;28;20077;-89
2024/02/20 01:29:09;;;;;;;0.20;0.20;;;;;;;5.10;71.04;102139.59;4972234;28;20030;-91
2024/02/20 01:31:35;;;;;;;0.20;0.20;;;;;;;5.08;71.15;102137.03;4972032;28;20054;-91
2024/02/20 01:34:04;;;;;;;0.20;0.20;;;;;;;4.98;72.14;102127.66;4955696;28;20027;-90
2024/02/20 01:36:30;;;;;;;0.20;0.20;;;;;;;4.99;71.87;102113.13;4940374;28;20035;-90
2024/02/20 01:38:56;;;;;;;0.20;0.20;;;;;;;5.08;71.92;102120.81;4971935;28;20027;-89
2024/02/20 01:41:21;;;;;;;0.20;0.20;;;;;;;5.15;72.05;102125.06;4987687;28;20140;-89
2024/02/20 01:43:47;;;;;;;0.20;0.20;;;;;;;5.11;71.63;102113.09;4971767;28;20070;-89
2024/02/20 01:46:15;;;;;;;0.20;0.20;;;;;;;5.24;71.64;102124.19;4955740;28;20035;-88
2024/02/20 01:48:41;;;;;;;0.20;0.20;;;;;;;5.15;71.88;102099.41;4971957;28;20058;-90
2024/02/20 01:51:07;;;;;;;0.20;0.20;;;;;;;5.24;71.96;102109.66;4955527;28;20073;-90
2024/02/20 01:53:33;;;;;;;0.20;0.20;;;;;;;5.32;71.62;102105.34;4971506;28;20041;-90
2024/02/20 01:55:58;;;;;;;0.20;0.20;;;;;;;5.40;71.78;102101.03;4955509;28;20030;-89
2024/02/20 01:58:24;;;;;;;0.20;0.20;;;;;;;5.35;71.76;102091.66;4971603;28;20026;-89
2024/02/20 02:00:49;;;;;;;0.20;0.20;;;;;;;5.41;71.68;102092.50;4972962;28;20027;-89
2024/02/20 02:03:15;;;;;;;0.20;0.20;;;;;;;5.24;71.81;102080.56;4971295;28;20027;-89
2024/02/20 02:05:40;;;;;;;0.20;0.20;;;;;;;5.36;71.72;102094.19;4971353;28;20031;-90
2024/02/20 02:08:09;;;;;;;0.20;0.20;;;;;;;5.28;72.33;102083.09;4970960;28;20097;-89
2024/02/20 02:10:34;;;;;;;0.20;0.20;;;;;;;5.29;72.60;102089.94;4971341;28;20026;-90
2024/02/20 02:13:00;;;;;;;0.20;0.20;;;;;;;5.33;72.13;102089.09;4971198;28;20487;-90
2024/02/20 02:15:26;;;;;;;0.20;0.20;;;;;;;5.38;72.13;102099.31;4955396;28;20473;-90
2024/02/20 02:17:51;;;;;;;0.20;0.20;;;;;;;5.42;72.19;102088.22;4971073;28;20087;-91
2024/02/20 02:20:17;;;;;;;0.20;0.20;;;;;;;5.39;71.68;102072.78;4971120;28;20489;-90
2024/02/20 02:22:42;;;;;;;0.20;0.20;;;;;;;5.41;71.38;102068.53;4954937;28;20097;-90
2024/02/20 02:25:08;;;;;;;0.20;0.20;;;;;;;5.50;71.66;102090.72;4972384;28;20444;-91
2024/02/20 02:27:36;;;;;;;0.20;0.20;;;;;;;5.43;72.15;102097.59;4971353;28;20481;-90
2024/02/20 02:30:05;;;;;;;0.20;0.20;;;;;;;5.43;72.00;102093.31;4939345;28;20030;-90
2024/02/20 02:32:30;;;;;;;0.20;0.20;;;;;;;5.31;72.23;102075.41;4955708;28;20031;-91
2024/02/20 02:34:56;;;;;;;0.20;0.20;;;;;;;5.30;72.25;102073.69;4971207;28;20180;-90
2024/02/20 02:37:21;;;;;;;0.20;0.20;;;;;;;5.40;71.89;102083.06;4987108;28;20027;-90
2024/02/20 02:39:47;;;;;;;0.20;0.20;;;;;;;5.47;72.13;102087.31;4970795;28;20027;-90
2024/02/20 02:42:13;;;;;;;0.20;0.20;;;;;;;5.40;72.20;102074.50;4954929;28;20061;-90
2024/02/20 02:44:38;;;;;;;0.20;0.20;;;;;;;5.47;72.23;102084.75;4991440;28;20054;-92
2024/02/20 02:47:06;;;;;;;0.20;0.20;;;;;;;5.32;72.47;102066.84;4961228;28;20440;-90
2024/02/20 02:49:31;;;;;;;0.20;0.20;;;;;;;5.49;72.23;102079.59;4993372;28;20113;-88
2024/02/20 02:51:57;;;;;;;0.20;0.20;;;;;;;5.34;71.68;102052.31;4976857;28;20105;-90
2024/02/20 02:54:25;;;;;;;0.20;0.20;;;;;;;5.45;71.17;102085.63;4977479;28;20065;-90
2024/02/20 02:56:50;;;;;;;0.20;0.20;;;;;;;5.28;71.73;102062.59;4977672;28;20077;-91
2024/02/20 02:59:16;;;;;;;0.20;0.20;;;;;;;5.45;71.68;102083.06;4977440;28;20031;-90
2024/02/20 03:01:42;;;;;;;0.20;0.20;;;;;;;5.42;71.58;102086.50;4977346;28;20037;-89
2024/02/20 03:04:07;;;;;;;0.20;0.20;;;;;;;5.28;71.12;102084.81;4977419;28;20099;-89
2024/02/20 03:06:40;;;;;;;0.20;0.20;;;;;;;5.28;71.22;102090.81;4993418;28;20031;-90
2024/02/20 03:09:12;;;;;;;0.20;0.20;;;;;;;5.24;71.29;102084.00;4961845;28;20034;-90
2024/02/20 03:11:41;;;;;;;0.20;0.20;;;;;;;5.23;71.01;102074.59;4962224;28;20038;-91
2024/02/20 03:14:08;;;;;;;0.20;0.20;;;;;;;5.26;70.91;102087.41;4993276;28;20034;-90
2024/02/20 03:16:33;;;;;;;0.20;0.20;;;;;;;5.30;71.12;102095.94;4977419;28;20033;-89
2024/02/20 03:19:01;;;;;;;0.20;0.20;;;;;;;5.41;70.79;102102.75;4977234;28;20125;-91
2024/02/20 03:21:27;;;;;;;0.20;0.20;;;;;;;5.31;71.05;102100.19;4961171;28;20109;-91
2024/02/20 03:23:52;;;;;;;0.20;0.20;;;;;;;5.32;71.28;102100.22;4961097;28;20027;-89
2024/02/20 03:26:18;;;;;;;0.20;0.20;;;;;;;5.38;71.19;102100.19;4977125;28;20046;-90
2024/02/20 03:28:45;;;;;;;0.20;0.20;;;;;;;5.22;71.77;102080.59;4960994;28;20045;-89
2024/02/20 03:31:11;;;;;;;0.20;0.20;;;;;;;5.27;71.80;102090.81;4992887;28;20117;-90
2024/02/20 03:33:37;;;;;;;0.20;0.20;;;;;;;5.31;71.60;102093.38;4960877;28;20027;-90
2024/02/20 03:36:03;;;;;;;0.20;0.20;;;;;;;5.36;71.42;102099.34;4978318;28;20034;-90
2024/02/20 03:38:28;;;;;;;0.20;0.20;;;;;;;5.42;71.37;102101.03;4977127;28;20038;-91
2024/02/20 03:40:54;;;;;;;0.20;0.20;;;;;;;5.23;70.92;102055.78;4976837;28;20031;-89
2024/02/20 03:43:19;;;;;;;0.20;0.20;;;;;;;5.42;71.07;102099.31;4978278;28;20082;-90
2024/02/20 03:45:45;;;;;;;0.20;0.20;;;;;;;5.37;71.45;102100.19;4976701;28;20564;-93
2024/02/20 03:48:11;;;;;;;0.20;0.20;;;;;;;5.41;71.12;102101.91;4978623;28;20117;-88
2024/02/20 03:50:36;;;;;;;0.20;0.20;;;;;;;5.23;72.02;102107.94;4976976;28;20137;-91
2024/02/20 03:53:02;;;;;;;0.20;0.20;;;;;;;5.27;71.85;102108.78;4977255;28;20110;-92
2024/02/20 03:55:28;;;;;;;0.20;0.20;;;;;;;5.15;71.92;102107.13;4974811;28;20026;-89
2024/02/20 03:57:53;;;;;;;0.20;0.20;;;;;;;5.03;72.25;102110.56;4974390;28;20170;-93
2024/02/20 04:00:24;;;;;;;0.20;0.20;;;;;;;4.97;72.34;102099.47;4976271;28;20034;-92
2024/02/20 04:02:49;;;;;;;0.20;0.20;;;;;;;5.01;71.99;102096.88;4989674;28;20038;-93
2024/02/20 04:05:15;;;;;;;0.20;0.20;;;;;;;4.96;71.86;102090.06;4990408;28;20030;-92
2024/02/20 04:07:41;;;;;;;0.20;0.20;;;;;;;4.94;71.75;102105.47;4958648;28;20038;-93
2024/02/20 04:10:10;;;;;;;0.20;0.20;;;;;;;4.75;72.22;102096.94;4974412;28;20034;-93
2024/02/20 04:12:36;;;;;;;0.20;0.20;;;;;;;4.75;72.16;102104.63;4990626;28;20030;-92
2024/02/20 04:15:06;;;;;;;0.20;0.20;;;;;;;4.72;72.22;102103.75;4959170;28;20022;-91
2024/02/20 04:17:31;;;;;;;0.20;0.20;;;;;;;4.80;72.31;102107.19;4958148;28;20402;-91
2024/02/20 04:19:59;;;;;;;0.20;0.20;;;;;;;4.64;72.21;102080.72;4973610;28;20122;-90
2024/02/20 04:22:26;;;;;;;0.20;0.20;;;;;;;4.80;72.03;102108.03;4990674;28;20088;-90
2024/02/20 04:24:51;;;;;;;0.20;0.20;;;;;;;4.82;72.22;102106.34;4994120;28;20408;-90
2024/02/20 04:27:17;;;;;;;0.20;0.20;;;;;;;4.85;72.37;102100.34;4992826;28;20032;-92
2024/02/20 04:29:43;;;;;;;0.20;0.20;;;;;;;4.82;72.34;102108.91;4993232;28;20034;-89
2024/02/20 04:32:08;;;;;;;0.20;0.20;;;;;;;4.80;72.94;102108.03;4977044;28;20026;-92
2024/02/20 04:34:34;;;;;;;0.20;0.20;;;;;;;4.72;72.45;102080.69;5009292;28;20033;-91
2024/02/20 04:36:59;;;;;;;0.20;0.20;;;;;;;4.77;72.49;102081.56;5009711;28;20026;-88
2024/02/20 04:39:25;;;;;;;0.20;0.20;;;;;;;5.01;72.47;102108.84;4992696;28;20035;-91
2024/02/20 04:41:50;;;;;;;0.20;0.20;;;;;;;4.92;72.11;102096.03;4991903;28;20082;-91
2024/02/20 04:44:16;;;;;;;0.20;0.20;;;;;;;4.83;71.94;102087.53;4976361;28;20061;-90
2024/02/20 04:46:41;;;;;;;0.20;0.20;;;;;;;5.05;71.86;102105.44;4976270;28;20026;-89
2024/02/20 04:49:07;;;;;;;0.20;0.20;;;;;;;5.08;71.57;102110.53;4975524;28;20031;-88
2024/02/20 04:51:35;;;;;;;0.20;0.20;;;;;;;4.83;72.59;102102.91;4976029;28;20037;-89
2024/02/20 04:54:01;;;;;;;0.20;0.20;;;;;;;4.93;73.09;102108.03;5007638;28;20141;-89
2024/02/20 04:56:26;;;;;;;0.20;0.20;;;;;;;5.00;72.74;102104.56;4975995;28;20110;-89
2024/02/20 04:58:52;;;;;;;0.20;0.20;;;;;;;5.03;72.49;102104.59;4992136;28;20420;-88
2024/02/20 05:01:17;;;;;;;0.20;0.20;;;;;;;5.02;72.92;102102.88;4975952;28;20477;-87
2024/02/20 05:03:43;;;;;;;0.20;0.20;;;;;;;4.95;72.30;102103.75;4991058;28;20046;-89
2024/02/20 05:06:11;;;;;;;0.20;0.20;;;;;;;4.94;72.41;102094.34;4989892;28;20038;-89
2024/02/20 05:08:36;;;;;;;0.10;0.10;;;;;;;4.70;72.95;102090.94;4964759;28;20098;-91
2024/02/20 05:11:02;;;;;;;0.20;0.20;;;;;;;4.70;73.09;102096.06;4988533;28;20488;-88
2024/02/20 05:13:28;;;;;;;0.20;0.20;;;;;;;4.75;73.08;102107.19;4972119;28;20113;-87
2024/02/20 05:15:53;;;;;;;0.20;0.20;;;;;;;4.85;73.16;102103.75;4974498;28;20499;-85
2024/02/20 05:18:19;;;;;;;0.10;0.10;;;;;;;4.76;72.54;102079.84;4996356;28;20038;-89
2024/02/20 05:20:44;;;;;;;0.20;0.20;;;;;;;4.80;72.85;102092.66;5013315;28;20030;-88
2024/02/20 05:23:10;;;;;;;0.20;0.20;;;;;;;4.95;72.24;102112.28;5011603;28;20022;-89
2024/02/20 05:25:35;;;;;;;0.20;0.20;;;;;;;4.93;72.15;102113.16;4994856;28;20030;-93
2024/02/20 05:28:01;;;;;;;0.20;0.20;;;;;;;4.87;72.75;102125.13;5005390;28;20041;-91
2024/02/20 05:30:26;;;;;;;0.20;0.20;;;;;;;4.94;72.37;102122.56;4992697;28;20026;-93
2024/02/20 05:32:52;;;;;;;0.20;0.20;;;;;;;4.93;71.87;102121.72;4989868;28;20031;-87
2024/02/20 05:35:19;;;;;;;0.20;0.20;;;;;;;4.97;72.20;102125.09;4973661;28;20034;-90
2024/02/20 05:37:44;;;;;;;0.20;0.20;;;;;;;4.99;71.62;102124.25;4993321;28;20109;-92
2024/02/20 05:40:13;;;;;;;0.20;0.20;;;;;;;4.93;71.70;102131.13;4985077;28;20511;-84
2024/02/20 05:42:39;;;;;;;0.20;0.20;;;;;;;4.84;72.16;102131.97;5006203;28;20054;-84
2024/02/20 05:45:06;;;;;;;0.20;0.20;;;;;;;4.84;71.89;102129.41;4983185;28;20025;-91
2024/02/20 05:47:32;;;;;;;0.20;0.20;;;;;;;4.70;72.42;102139.66;5015915;28;20030;-91
2024/02/20 05:49:58;;;;;;;0.20;0.20;;;;;;;4.66;72.90;102144.81;5011164;28;20061;-88
2024/02/20 05:52:23;;;;;;;0.20;0.20;;;;;;;4.63;72.70;102135.41;5008382;28;20030;-92
2024/02/20 05:54:49;;;;;;;0.10;0.10;;;;;;;4.56;72.98;102123.44;5010325;28;20043;-84
2024/02/20 05:57:14;;;;;;;0.20;0.20;;;;;;;4.66;72.46;102140.53;4989477;28;20092;-92
2024/02/20 05:59:40;;;;;;;0.20;0.20;;;;;;;4.63;72.87;102130.28;4992362;28;20089;-89
2024/02/20 06:02:06;;;;;;;0.20;0.20;;;;;;;4.76;72.08;102142.22;4971238;28;20058;-91
2024/02/20 06:04:32;;;;;;;0.20;0.20;;;;;;;4.70;72.06;102137.09;4988130;28;20149;-90
2024/02/20 06:06:57;;;;;;;0.20;0.20;;;;;;;4.72;72.22;102130.28;4995223;28;20513;-92
2024/02/20 06:09:23;;;;;;;0.20;0.20;;;;;;;4.81;72.09;102148.19;4981946;28;20347;-90
2024/02/20 06:11:49;;;;;;;0.20;0.20;;;;;;;4.87;71.86;102143.06;5010411;28;20026;-91
2024/02/20 06:14:16;;;;;;;0.20;0.20;;;;;;;4.57;71.99;102099.53;4985696;28;20539;-88
2024/02/20 06:16:41;;;;;;;0.20;0.20;;;;;;;4.79;71.84;102123.41;4994259;28;20152;-91
2024/02/20 06:19:07;;;;;;;0.20;0.20;;;;;;;5.08;71.24;102144.75;5004777;28;20109;-91
2024/02/20 06:21:33;;;;;;;0.20;0.20;;;;;;;4.98;71.63;102139.63;4989036;28;20034;-86
2024/02/20 06:23:59;;;;;;;0.20;0.20;;;;;;;5.08;71.85;102149.88;4988940;28;20041;-87
2024/02/20 06:26:24;;;;;;;0.20;0.20;;;;;;;5.19;71.58;102132.75;4972846;28;20976;-93
2024/02/20 06:28:51;;;;;;;0.20;0.20;;;;;;;5.09;71.82;102118.22;5007047;28;20077;-88
2024/02/20 06:31:17;;;;;;;0.20;0.20;;;;;;;5.17;71.41;102144.72;4988890;28;20145;-87
2024/02/20 06:33:43;;;;;;;0.20;0.20;;;;;;;5.40;70.93;102152.34;4992374;28;20734;-82
2024/02/20 06:36:09;;;;;;;0.20;0.20;;;;;;;5.38;70.56;102148.09;4989141;28;20025;-83
2024/02/20 06:38:34;;;;;;;0.20;0.20;;;;;;;5.38;70.99;102141.25;4988818;28;20034;-82
2024/02/20 06:41:00;;;;;;;0.20;0.20;;;;;;;5.54;70.48;102146.34;4997927;28;20029;-88
2024/02/20 06:43:26;;;;;;;0.20;0.20;;;;;;;5.56;70.71;102131.78;4959726;28;20133;-91
2024/02/20 06:45:53;;;;;;;0.20;0.20;;;;;;;5.68;69.85;102121.44;5000447;28;20381;-89
2024/02/20 06:48:18;;;;;;;0.20;0.20;;;;;;;5.86;69.63;102148.75;5014486;28;20034;-88
2024/02/20 06:50:44;;;;;;;0.20;0.20;;;;;;;5.81;69.49;102143.66;4974034;28;20110;-91
2024/02/20 06:53:09;;;;;;;0.20;0.20;;;;;;;5.89;69.77;102151.28;4989643;28;20027;-92
2024/02/20 06:55:35;;;;;;;0.20;0.20;;;;;;;5.98;69.81;102146.13;4991922;28;20027;-90
2024/02/20 06:58:01;;;;;;;0.30;0.30;;;;;;;6.00;69.77;102149.56;4985711;28;20038;-92
2024/02/20 07:00:26;;;;;;;0.20;0.20;;;;;;;6.08;70.05;102164.94;5008007;28;20034;-93
2024/02/20 07:02:53;;;;;;;0.20;0.20;;;;;;;6.03;69.60;102145.25;4989348;28;20026;-90
2024/02/20 07:05:18;;;;;;;0.20;0.20;;;;;;;6.11;69.29;102134.94;4995080;28;20468;-86
2024/02/20 07:07:44;;;;;;;0.20;0.20;;;;;;;6.23;69.27;102150.28;4993887;28;20037;-87
2024/02/20 07:10:10;;;;;;;0.20;0.20;;;;;;;6.39;69.36;102163.88;4998040;28;20034;-90
2024/02/20 07:12:36;;;;;;;0.20;0.20;;;;;;;6.48;69.55;102176.66;4986735;28;20034;-87
2024/02/20 07:15:06;;;;;;;0.20;0.20;;;;;;;6.45;69.52;102166.41;4989677;28;20104;-86
2024/02/20 07:17:34;;;;;;;0.20;0.20;;;;;;;6.54;69.31;102171.47;4987637;28;20035;-91
2024/02/20 07:20:01;;;;;;;0.20;0.20;;;;;;;6.53;68.70;102156.91;4988492;28;20041;-86
2024/02/20 07:22:28;;;;;;;0.20;0.20;;;;;;;6.69;68.21;102175.66;5004814;28;20061;-83
2024/02/20 07:24:54;;;;;;;0.20;0.20;;;;;;;6.73;68.48;102179.03;4989893;28;20038;-84
2024/02/20 07:27:19;;;;;;;0.20;0.20;;;;;;;6.82;67.99;102178.97;4987864;28;20149;-89
2024/02/20 07:29:46;;;;;;;0.20;0.20;;;;;;;6.72;68.34;102167.06;5006201;28;20041;-85
2024/02/20 07:32:11;;;;;;;0.20;0.20;;;;;;;6.78;68.21;102149.81;4994025;28;20117;-84
2024/02/20 07:34:38;;;;;;;0.20;0.20;;;;;;;6.87;68.25;102159.19;4978530;28;20114;-87
2024/02/20 07:37:06;;;;;;;0.20;0.20;;;;;;;7.00;67.91;102155.66;4993786;28;20148;-85
2024/02/20 07:39:31;;;;;;;0.20;0.20;;;;;;;7.10;68.65;102159.84;4999880;28;20026;-90
2024/02/20 07:41:57;;;;;;;0.20;0.20;;;;;;;7.36;67.73;102156.13;4995492;28;20084;-93
2024/02/20 07:44:23;;;;;;;0.20;0.20;;;;;;;7.51;67.32;102163.69;4994726;28;20034;-93
2024/02/20 07:46:48;;;;;;;0.20;0.20;;;;;;;7.63;66.82;102150.66;4993945;28;20493;-87
2024/02/20 07:49:14;;;;;;;0.20;0.20;;;;;;;7.80;66.60;102152.16;4993233;28;20050;-87
2024/02/20 07:51:39;;;;;;;0.20;0.20;;;;;;;7.97;66.66;102145.91;4986762;28;20027;-88
2024/02/20 07:54:05;;;;;;;0.20;0.20;;;;;;;8.05;66.06;102138.91;4989343;28;20100;-85
2024/02/20 07:56:30;;;;;;;0.20;0.20;;;;;;;8.10;65.57;102141.44;4985170;28;20023;-86
2024/02/20 07:58:56;;;;;;;0.20;0.20;;;;;;;7.99;65.40;102143.31;5000277;28;20034;-89
2024/02/20 08:01:24;;;;;;;0.25;0.25;;;;;;;8.00;65.29;102109.78;4964017;28;20022;-89
2024/02/20 08:03:52;;;;;;;0.20;0.20;;;;;;;8.20;65.21;102142.16;4985391;28;20031;-87
2024/02/20 08:06:22;;;;;;;0.20;0.20;;;;;;;8.13;65.44;102135.38;5007022;28;20439;-92
2024/02/20 08:08:47;;;;;;;0.20;0.20;;;;;;;8.24;64.97;102143.78;5004295;28;20483;-93
2024/02/20 08:11:13;;;;;;;0.20;0.20;;;;;;;8.21;64.90;102124.06;5009217;28;20041;-84
2024/02/20 08:13:42;;;;;;;0.20;0.20;;;;;;;8.39;64.82;102127.28;4990923;28;20022;-88
2024/02/20 08:16:14;;;;;;;0.20;0.20;;;;;;;8.27;64.72;102102.53;4991501;28;20066;-92
2024/02/20 08:18:40;;;;;;;0.20;0.20;;;;;;;8.60;64.54;102135.53;4992085;28;20034;-91
2024/02/20 08:21:10;;;;;;;0.20;0.20;;;;;;;8.70;63.92;102143.97;4974274;28;21971;-89
2024/02/20 08:23:39;;;;;;;0.20;0.20;;;;;;;8.62;64.59;102130.31;4994357;28;20487;-86
2024/02/20 08:26:05;;;;;;;0.20;0.20;;;;;;;8.72;64.22;102131.88;4990355;28;20526;-89
2024/02/20 08:28:30;;;;;;;0.20;0.20;;;;;;;8.95;64.09;102133.19;5000364;28;20026;-89
2024/02/20 08:30:56;;;;;;;0.20;0.20;;;;;;;9.12;63.27;102118.25;4999584;28;20038;-88
2024/02/20 08:33:22;;;;;;;0.20;0.20;;;;;;;9.20;62.35;102124.97;4982924;28;20085;-83
2024/02/20 08:35:47;;;;;;;0.20;0.20;;;;;;;9.17;62.41;102125.03;4991214;28;20551;-86
2024/02/20 08:38:14;;;;;;;0.20;0.20;;;;;;;9.10;62.52;102115.69;4994489;28;20034;-84
2024/02/20 08:40:40;;;;;;;0.20;0.20;;;;;;;9.24;62.21;102115.41;4975688;28;20539;-92
2024/02/20 08:43:05;;;;;;;0.20;0.20;;;;;;;9.47;62.57;102123.56;4985812;28;20169;-92
2024/02/20 08:45:31;;;;;;;0.20;0.20;;;;;;;9.53;62.33;102122.56;4984886;28;20026;-93
2024/02/20 08:47:58;;;;;;;0.20;0.20;;;;;;;9.60;61.17;102123.31;4991577;28;20022;-84
2024/02/20 08:50:23;;;;;;;0.20;0.20;;;;;;;9.75;61.80;102128.16;4990318;28;20037;-86
2024/02/20 08:52:49;;;;;;;0.20;0.20;;;;;;;9.99;60.89;102132.78;4988512;28;20034;-93
2024/02/20 08:55:14;;;;;;;0.20;0.20;;;;;;;13.28;58.69;102115.41;4990646;28;20342;-86
2024/02/20 08:57:40;;;;;;;0.20;0.20;;;;;;;15.34;52.42;102099.13;4995232;28;20114;-88
2024/02/20 09:00:11;;;;;;;0.20;0.20;;;;;;;15.82;44.65;102122.16;4992041;28;20081;-82
2024/02/20 09:02:40;;;;;;;0.20;0.20;;;;;;;14.68;46.40;102124.66;4987644;28;20031;-83
2024/02/20 09:05:07;;;;;;;0.20;0.20;;;;;;;13.75;48.39;102121.41;4972211;28;20071;-88
2024/02/20 09:07:32;;;;;;;0.20;0.20;;;;;;;13.37;49.18;102120.25;4985466;28;20038;-86
2024/02/20 09:09:58;;;;;;;0.20;0.20;;;;;;;12.81;50.33;102105.78;4989487;28;20515;-91
2024/02/20 09:12:23;;;;;;;0.20;0.20;;;;;;;12.61;51.55;102127.22;4991277;28;20525;-90
2024/02/20 09:14:49;;;;;;;0.20;0.20;;;;;;;12.13;51.55;102101.13;4970897;28;20047;-90
2024/02/20 09:17:15;;;;;;;0.20;0.20;;;;;;;11.99;52.79;102116.25;4988882;28;20049;-89
2024/02/20 09:19:41;;;;;;;0.20;0.20;;;;;;;11.92;53.25;102114.78;4987153;28;20413;-86
2024/02/20 09:22:10;;;;;;;0.20;0.20;;;;;;;11.83;53.64;102122.84;4988854;28;20101;-80
2024/02/20 09:24:36;;;;;;;0.20;0.20;;;;;;;11.60;53.99;102113.97;4983603;28;20033;-87
2024/02/20 09:27:02;;;;;;;0.20;0.20;;;;;;;11.39;54.43;102128.38;5001274;28;20489;-88
2024/02/20 09:29:31;;;;;;;0.20;0.20;;;;;;;11.25;55.00;102140.03;4988068;28;20121;-87
2024/02/20 09:31:58;;;;;;;0.20;0.20;;;;;;;10.97;56.50;102125.22;4982300;28;20033;-91
2024/02/20 09:34:24;;;;;;;0.20;0.20;;;;;;;10.99;55.97;102107.06;4983357;28;20022;-88
2024/02/20 09:36:49;;;;;;;0.20;0.20;;;;;;;10.83;55.91;102096.28;4985031;28;20105;-85
2024/02/20 09:39:15;;;;;;;0.20;0.20;;;;;;;10.77;56.18;102092.09;4981266;28;20110;-85
2024/02/20 09:41:40;;;;;;;0.20;0.20;;;;;;;10.85;56.21;102112.63;4984878;28;20078;-86
2024/02/20 09:44:08;;;;;;;0.20;0.20;;;;;;;10.91;56.32;102120.22;4988623;28;20031;-91
2024/02/20 09:46:41;;;;;;;0.20;0.20;;;;;;;10.83;56.33;102107.50;4971416;28;20042;-84
2024/02/20 09:49:07;;;;;;;0.20;0.20;;;;;;;11.03;55.93;102126.81;4989651;28;20065;-88
2024/02/20 09:51:33;;;;;;;0.20;0.20;;;;;;;10.91;55.69;102100.38;4989721;28;20520;-81
2024/02/20 09:54:00;;;;;;;0.20;0.20;;;;;;;11.15;55.89;102126.47;4993958;28;20022;-88
2024/02/20 09:56:25;;;;;;;0.20;0.20;;;;;;;11.14;56.13;102125.63;4989423;28;20030;-87
2024/02/20 09:58:51;;;;;;;0.20;0.20;;;;;;;11.13;57.18;102125.69;4977137;28;20038;-84
2024/02/20 10:01:16;;;;;;;0.20;0.20;;;;;;;11.02;56.58;102094.91;4986699;28;20027;-85
2024/02/20 10:03:42;;;;;;;0.20;0.20;;;;;;;10.98;56.48;102111.41;4990221;28;20034;-88
2024/02/20 10:06:08;;;;;;;0.20;0.20;;;;;;;11.20;56.58;102122.00;4977674;28;20045;-85
2024/02/20 10:08:34;;;;;;;0.20;0.20;;;;;;;11.17;56.28;102115.19;4990888;28;20034;-91
2024/02/20 10:11:00;;;;;;;0.20;0.20;;;;;;;11.23;56.64;102102.97;4988999;28;20110;-87
2024/02/20 10:13:25;;;;;;;0.20;0.20;;;;;;;11.44;56.35;102120.47;4989582;28;20028;-89
2024/02/20 10:16:02;;;;;;;0.20;0.20;;;;;;;11.45;56.60;102119.59;4970862;28;20507;-82
2024/02/20 10:18:28;;;;;;;0.20;0.20;;;;;;;11.40;56.48;102116.25;4985384;28;20471;-83
2024/02/20 10:21:02;;;;;;;0.20;0.20;;;;;;;11.43;56.78;102114.47;4987948;28;20548;-89
2024/02/20 10:23:28;;;;;;;0.20;0.20;;;;;;;11.42;57.34;102086.00;5004762;28;20043;-91
2024/02/20 10:26:02;;;;;;;0.20;0.20;;;;;;;11.54;55.86;102089.97;4994499;28;20030;-87
2024/02/20 10:28:28;;;;;;;0.20;0.20;;;;;;;11.60;56.52;102085.47;4995972;28;20034;-88
2024/02/20 10:30:55;;;;;;;0.20;0.20;;;;;;;11.90;56.45;102106.19;4989042;28;20055;-90
2024/02/20 10:33:21;;;;;;;0.20;0.20;;;;;;;11.97;55.73;102095.56;4973039;28;20030;-84
2024/02/20 10:35:47;;;;;;;0.20;0.20;;;;;;;11.88;55.86;102082.03;4995142;28;20031;-92
2024/02/20 10:38:18;;;;;;;0.20;0.20;;;;;;;11.88;55.35;102097.59;4983803;28;20443;-83
2024/02/20 10:40:43;;;;;;;0.20;0.20;;;;;;;11.86;55.64;102095.06;4967816;28;20034;-82
2024/02/20 10:43:09;;;;;;;0.20;0.20;;;;;;;11.63;56.56;102069.81;4987162;28;20184;-85
2024/02/20 10:45:35;;;;;;;0.20;0.20;;;;;;;11.75;56.26;102084.97;5000317;28;20029;-85
2024/02/20 10:48:02;;;;;;;0.20;0.20;;;;;;;11.89;56.33;102078.53;4990029;28;20100;-93
2024/02/20 10:50:28;;;;;;;0.20;0.20;;;;;;;11.97;56.06;102077.41;4990244;28;20057;-86
2024/02/20 10:52:54;;;;;;;0.20;0.20;;;;;;;11.77;53.86;102039.09;4989623;28;20077;-86
2024/02/20 10:55:19;;;;;;;0.20;0.20;;;;;;;11.97;53.06;102071.38;4988989;28;20038;-88
2024/02/20 10:57:46;;;;;;;0.20;0.20;;;;;;;11.98;52.61;102063.53;4987392;28;20045;-85
2024/02/20 11:00:13;;;;;;;0.20;0.20;;;;;;;11.87;52.13;102059.59;4985679;28;20121;-86
2024/02/20 11:02:39;;;;;;;0.20;0.20;;;;;;;11.95;52.07;102065.41;4990062;28;20038;-91
2024/02/20 11:05:05;;;;;;;0.20;0.20;;;;;;;11.83;51.95;102053.66;4979446;28;20034;-87
2024/02/20 11:07:31;;;;;;;0.20;0.20;;;;;;;11.60;51.86;102033.63;4990493;28;20161;-87
2024/02/20 11:10:17;;;;;;;0.20;0.20;;;;;;;11.80;52.06;102056.38;4991317;28;20038;-85
2024/02/20 11:12:42;;;;;;;0.20;0.20;;;;;;;11.73;52.13;102047.03;5006268;28;20503;-82
2024/02/20 11:15:10;;;;;;;0.20;0.20;;;;;;;11.66;52.11;102032.56;4991014;28;20149;-84
2024/02/20 11:17:39;;;;;;;0.20;0.20;;;;;;;11.77;52.19;102043.44;4988943;28;20138;-90
2024/02/20 11:20:25;;;;;;;0.20;0.20;;;;;;;11.90;52.22;102047.41;4991559;28;20037;-88
2024/02/20 11:22:51;;;;;;;0.20;0.20;;;;;;;11.91;52.57;102030.94;4993264;28;20114;-85
2024/02/20 11:25:22;;;;;;;0.20;0.20;;;;;;;11.95;52.59;102039.47;4975997;28;20042;-86
2024/02/20 11:27:48;;;;;;;0.20;0.20;;;;;;;11.83;52.96;102034.66;5002857;28;20026;-87